sensor_id;sensor_type;location;lat;lon;timestamp;temperature;humidity
79315;DHT22;68777;44.804;0.552;2023-04-01T00:00:11;13.43;64.08
79315;DHT22;68777;44.804;0.552;2023-04-01T00:02:36;13.30;64.15
79315;DHT22;68777;44.804;0.552;2023-04-01T00:05:02;13.26;64.61
79315;DHT22;68777;44.804;0.552;2023-04-01T00:07:27;13.30;64.54
79315;DHT22;68777;44.804;0.552;2023-04-01T00:09:53;13.29;64.62
79315;DHT22;68777;44.804;0.552;2023-04-01T00:12:18;13.27;64.55
79315;DHT22;68777;44.804;0.552;2023-04-01T00:14:43;13.20;65.00
79315;DHT22;68777;44.804;0.552;2023-04-01T00:17:09;13.20;64.81
79315;DHT22;68777;44.804;0.552;2023-04-01T00:19:35;13.25;65.02
79315;DHT22;68777;44.804;0.552;2023-04-01T00:22:02;13.27;65.06
79315;DHT22;68777;44.804;0.552;2023-04-01T00:24:27;13.34;65.53
79315;DHT22;68777;44.804;0.552;2023-04-01T00:26:53;13.15;66.40
79315;DHT22;68777;44.804;0.552;2023-04-01T00:29:18;13.32;66.26
79315;DHT22;68777;44.804;0.552;2023-04-01T00:31:43;13.45;66.03
79315;DHT22;68777;44.804;0.552;2023-04-01T00:34:09;13.39;66.61
79315;DHT22;68777;44.804;0.552;2023-04-01T00:36:35;13.45;66.93
79315;DHT22;68777;44.804;0.552;2023-04-01T00:39:00;13.50;66.59
79315;DHT22;68777;44.804;0.552;2023-04-01T00:41:26;13.53;66.88
79315;DHT22;68777;44.804;0.552;2023-04-01T00:43:51;13.53;67.29
79315;DHT22;68777;44.804;0.552;2023-04-01T00:46:18;13.57;67.21
79315;DHT22;68777;44.804;0.552;2023-04-01T00:48:53;13.45;67.58
79315;DHT22;68777;44.804;0.552;2023-04-01T00:51:22;13.56;67.86
79315;DHT22;68777;44.804;0.552;2023-04-01T00:53:51;13.32;68.57
79315;DHT22;68777;44.804;0.552;2023-04-01T00:56:35;13.12;69.47
79315;DHT22;68777;44.804;0.552;2023-04-01T00:59:06;13.11;69.91
79315;DHT22;68777;44.804;0.552;2023-04-01T01:01:34;12.96;70.25
79315;DHT22;68777;44.804;0.552;2023-04-01T01:04:01;13.04;70.42
79315;DHT22;68777;44.804;0.552;2023-04-01T01:11:57;12.77;71.04
79315;DHT22;68777;44.804;0.552;2023-04-01T01:17:15;12.83;70.43
79315;DHT22;68777;44.804;0.552;2023-04-01T01:31:44;13.05;69.01
79315;DHT22;68777;44.804;0.552;2023-04-01T01:34:22;13.06;68.94
79315;DHT22;68777;44.804;0.552;2023-04-01T01:36:58;12.91;68.70
79315;DHT22;68777;44.804;0.552;2023-04-01T01:39:27;12.96;68.49
79315;DHT22;68777;44.804;0.552;2023-04-01T01:41:57;12.92;68.11
79315;DHT22;68777;44.804;0.552;2023-04-01T01:44:28;12.88;68.20
79315;DHT22;68777;44.804;0.552;2023-04-01T01:46:55;12.96;67.99
79315;DHT22;68777;44.804;0.552;2023-04-01T01:49:21;12.91;68.12
79315;DHT22;68777;44.804;0.552;2023-04-01T01:51:46;12.96;67.93
79315;DHT22;68777;44.804;0.552;2023-04-01T01:54:14;12.99;67.84
79315;DHT22;68777;44.804;0.552;2023-04-01T01:56:41;12.85;68.25
79315;DHT22;68777;44.804;0.552;2023-04-01T01:59:10;12.80;67.82
79315;DHT22;68777;44.804;0.552;2023-04-01T02:01:40;12.91;67.39
79315;DHT22;68777;44.804;0.552;2023-04-01T02:04:08;12.88;67.64
79315;DHT22;68777;44.804;0.552;2023-04-01T02:06:39;12.89;67.52
79315;DHT22;68777;44.804;0.552;2023-04-01T02:09:07;12.88;67.49
79315;DHT22;68777;44.804;0.552;2023-04-01T02:14:22;12.91;67.86
79315;DHT22;68777;44.804;0.552;2023-04-01T02:17:02;12.91;67.98
79315;DHT22;68777;44.804;0.552;2023-04-01T02:19:33;12.96;67.86
79315;DHT22;68777;44.804;0.552;2023-04-01T02:22:02;12.92;68.05
79315;DHT22;68777;44.804;0.552;2023-04-01T02:24:30;12.74;68.29
79315;DHT22;68777;44.804;0.552;2023-04-01T02:26:57;12.87;68.28
79315;DHT22;68777;44.804;0.552;2023-04-01T02:29:24;12.89;68.02
79315;DHT22;68777;44.804;0.552;2023-04-01T02:31:51;12.85;68.20
79315;DHT22;68777;44.804;0.552;2023-04-01T02:34:18;12.85;68.06
79315;DHT22;68777;44.804;0.552;2023-04-01T02:36:43;12.92;68.03
79315;DHT22;68777;44.804;0.552;2023-04-01T02:39:09;12.84;68.32
79315;DHT22;68777;44.804;0.552;2023-04-01T02:41:39;12.88;68.18
79315;DHT22;68777;44.804;0.552;2023-04-01T02:44:05;12.88;68.05
79315;DHT22;68777;44.804;0.552;2023-04-01T02:46:32;12.80;68.18
79315;DHT22;68777;44.804;0.552;2023-04-01T02:48:57;12.89;67.93
79315;DHT22;68777;44.804;0.552;2023-04-01T02:51:23;12.74;68.28
79315;DHT22;68777;44.804;0.552;2023-04-01T02:53:48;12.73;68.57
79315;DHT22;68777;44.804;0.552;2023-04-01T02:56:13;12.77;68.55
79315;DHT22;68777;44.804;0.552;2023-04-01T02:58:39;12.83;68.42
79315;DHT22;68777;44.804;0.552;2023-04-01T03:01:04;12.83;68.26
79315;DHT22;68777;44.804;0.552;2023-04-01T03:03:30;12.89;68.37
79315;DHT22;68777;44.804;0.552;2023-04-01T03:05:56;12.85;68.40
79315;DHT22;68777;44.804;0.552;2023-04-01T03:08:23;12.84;68.55
79315;DHT22;68777;44.804;0.552;2023-04-01T03:10:49;12.81;68.52
79315;DHT22;68777;44.804;0.552;2023-04-01T03:13:14;12.84;68.35
79315;DHT22;68777;44.804;0.552;2023-04-01T03:15:40;12.85;68.15
79315;DHT22;68777;44.804;0.552;2023-04-01T03:18:05;12.83;68.04
79315;DHT22;68777;44.804;0.552;2023-04-01T03:20:31;12.85;68.14
79315;DHT22;68777;44.804;0.552;2023-04-01T03:22:56;12.80;68.48
79315;DHT22;68777;44.804;0.552;2023-04-01T03:25:21;12.83;68.32
79315;DHT22;68777;44.804;0.552;2023-04-01T03:27:47;12.77;68.54
79315;DHT22;68777;44.804;0.552;2023-04-01T03:30:12;12.84;68.42
79315;DHT22;68777;44.804;0.552;2023-04-01T03:32:38;12.84;68.34
79315;DHT22;68777;44.804;0.552;2023-04-01T03:35:03;12.87;68.37
79315;DHT22;68777;44.804;0.552;2023-04-01T03:37:30;12.87;68.59
79315;DHT22;68777;44.804;0.552;2023-04-01T03:39:55;12.87;68.58
79315;DHT22;68777;44.804;0.552;2023-04-01T03:42:20;12.81;68.62
79315;DHT22;68777;44.804;0.552;2023-04-01T03:44:46;12.88;68.65
79315;DHT22;68777;44.804;0.552;2023-04-01T03:47:11;12.87;68.72
79315;DHT22;68777;44.804;0.552;2023-04-01T03:49:36;12.88;68.78
79315;DHT22;68777;44.804;0.552;2023-04-01T03:52:02;12.75;69.00
79315;DHT22;68777;44.804;0.552;2023-04-01T03:54:27;12.77;69.31
79315;DHT22;68777;44.804;0.552;2023-04-01T03:56:53;12.88;69.07
79315;DHT22;68777;44.804;0.552;2023-04-01T03:59:20;12.89;69.09
79315;DHT22;68777;44.804;0.552;2023-04-01T04:01:46;12.87;69.29
79315;DHT22;68777;44.804;0.552;2023-04-01T04:04:12;12.98;68.92
79315;DHT22;68777;44.804;0.552;2023-04-01T04:06:38;12.99;68.92
79315;DHT22;68777;44.804;0.552;2023-04-01T04:09:04;13.02;68.78
79315;DHT22;68777;44.804;0.552;2023-04-01T04:11:31;12.99;69.07
79315;DHT22;68777;44.804;0.552;2023-04-01T04:13:57;12.95;69.01
79315;DHT22;68777;44.804;0.552;2023-04-01T04:16:22;12.87;69.10
79315;DHT22;68777;44.804;0.552;2023-04-01T04:18:47;12.98;68.99
79315;DHT22;68777;44.804;0.552;2023-04-01T04:21:14;12.99;68.71
79315;DHT22;68777;44.804;0.552;2023-04-01T04:23:41;12.99;68.90
79315;DHT22;68777;44.804;0.552;2023-04-01T04:26:09;13.01;68.76
79315;DHT22;68777;44.804;0.552;2023-04-01T04:28:35;12.92;69.00
79315;DHT22;68777;44.804;0.552;2023-04-01T04:31:01;12.99;69.11
79315;DHT22;68777;44.804;0.552;2023-04-01T04:33:27;12.99;69.05
79315;DHT22;68777;44.804;0.552;2023-04-01T04:35:55;13.04;69.00
79315;DHT22;68777;44.804;0.552;2023-04-01T04:38:21;12.98;69.32
79315;DHT22;68777;44.804;0.552;2023-04-01T04:40:47;12.85;69.52
79315;DHT22;68777;44.804;0.552;2023-04-01T04:43:14;12.85;69.66
79315;DHT22;68777;44.804;0.552;2023-04-01T04:45:40;12.98;69.39
79315;DHT22;68777;44.804;0.552;2023-04-01T04:48:13;12.77;69.51
79315;DHT22;68777;44.804;0.552;2023-04-01T04:50:44;12.78;69.77
79315;DHT22;68777;44.804;0.552;2023-04-01T04:53:10;12.89;69.33
79315;DHT22;68777;44.804;0.552;2023-04-01T04:55:36;12.94;69.05
79315;DHT22;68777;44.804;0.552;2023-04-01T04:58:01;12.95;69.25
79315;DHT22;68777;44.804;0.552;2023-04-01T05:00:26;12.83;69.45
79315;DHT22;68777;44.804;0.552;2023-04-01T05:02:52;12.89;69.29
79315;DHT22;68777;44.804;0.552;2023-04-01T05:05:17;12.95;69.00
79315;DHT22;68777;44.804;0.552;2023-04-01T05:07:43;12.92;68.98
79315;DHT22;68777;44.804;0.552;2023-04-01T05:10:08;12.98;68.78
79315;DHT22;68777;44.804;0.552;2023-04-01T05:12:34;12.95;68.85
79315;DHT22;68777;44.804;0.552;2023-04-01T05:15:06;13.01;68.85
79315;DHT22;68777;44.804;0.552;2023-04-01T05:17:32;12.96;68.51
79315;DHT22;68777;44.804;0.552;2023-04-01T05:19:57;13.01;68.45
79315;DHT22;68777;44.804;0.552;2023-04-01T05:22:23;12.96;68.47
79315;DHT22;68777;44.804;0.552;2023-04-01T05:24:49;12.98;68.63
79315;DHT22;68777;44.804;0.552;2023-04-01T05:27:15;12.98;68.53
79315;DHT22;68777;44.804;0.552;2023-04-01T05:29:40;12.98;68.60
79315;DHT22;68777;44.804;0.552;2023-04-01T05:32:06;12.98;68.55
79315;DHT22;68777;44.804;0.552;2023-04-01T05:34:31;12.92;68.78
79315;DHT22;68777;44.804;0.552;2023-04-01T05:36:56;12.85;69.00
79315;DHT22;68777;44.804;0.552;2023-04-01T05:39:22;12.84;69.01
79315;DHT22;68777;44.804;0.552;2023-04-01T05:41:48;12.83;69.11
79315;DHT22;68777;44.804;0.552;2023-04-01T05:44:14;12.89;68.85
79315;DHT22;68777;44.804;0.552;2023-04-01T05:46:39;12.83;68.95
79315;DHT22;68777;44.804;0.552;2023-04-01T05:49:04;12.73;69.16
79315;DHT22;68777;44.804;0.552;2023-04-01T05:51:30;12.77;69.23
79315;DHT22;68777;44.804;0.552;2023-04-01T05:53:55;12.74;69.07
79315;DHT22;68777;44.804;0.552;2023-04-01T05:56:21;12.81;68.90
79315;DHT22;68777;44.804;0.552;2023-04-01T05:58:51;12.89;68.72
79315;DHT22;68777;44.804;0.552;2023-04-01T06:01:18;12.85;68.69
79315;DHT22;68777;44.804;0.552;2023-04-01T06:03:44;12.87;68.96
79315;DHT22;68777;44.804;0.552;2023-04-01T06:06:14;12.84;68.83
79315;DHT22;68777;44.804;0.552;2023-04-01T06:08:41;12.83;68.92
79315;DHT22;68777;44.804;0.552;2023-04-01T06:16:16;13.02;68.54
79315;DHT22;68777;44.804;0.552;2023-04-01T06:35:27;12.75;69.55
79315;DHT22;68777;44.804;0.552;2023-04-01T06:40:48;12.63;69.48
79315;DHT22;68777;44.804;0.552;2023-04-01T06:43:37;12.84;68.81
79315;DHT22;68777;44.804;0.552;2023-04-01T06:46:19;12.80;68.90
79315;DHT22;68777;44.804;0.552;2023-04-01T06:54:42;13.26;67.11
79315;DHT22;68777;44.804;0.552;2023-04-01T06:57:29;13.20;67.28
79315;DHT22;68777;44.804;0.552;2023-04-01T06:59:59;13.25;66.76
79315;DHT22;68777;44.804;0.552;2023-04-01T07:02:45;13.62;65.91
79315;DHT22;68777;44.804;0.552;2023-04-01T07:05:14;13.53;65.96
79315;DHT22;68777;44.804;0.552;2023-04-01T07:07:45;13.52;65.89
79315;DHT22;68777;44.804;0.552;2023-04-01T07:13:04;13.34;66.18
79315;DHT22;68777;44.804;0.552;2023-04-01T07:15:42;13.47;65.89
79315;DHT22;68777;44.804;0.552;2023-04-01T07:18:16;13.67;65.44
79315;DHT22;68777;44.804;0.552;2023-04-01T07:20:42;13.77;65.00
79315;DHT22;68777;44.804;0.552;2023-04-01T07:23:28;13.76;65.03
79315;DHT22;68777;44.804;0.552;2023-04-01T07:26:00;13.90;64.62
79315;DHT22;68777;44.804;0.552;2023-04-01T07:28:30;14.04;64.82
79315;DHT22;68777;44.804;0.552;2023-04-01T07:31:20;14.16;63.44
79315;DHT22;68777;44.804;0.552;2023-04-01T07:45:38;14.96;62.51
79315;DHT22;68777;44.804;0.552;2023-04-01T07:50:53;14.28;65.31
79315;DHT22;68777;44.804;0.552;2023-04-01T07:53:38;14.20;64.58
79315;DHT22;68777;44.804;0.552;2023-04-01T07:56:13;14.27;64.89
79315;DHT22;68777;44.804;0.552;2023-04-01T08:01:30;14.35;64.74
79315;DHT22;68777;44.804;0.552;2023-04-01T08:04:51;14.68;64.12
79315;DHT22;68777;44.804;0.552;2023-04-01T08:07:27;14.72;63.86
79315;DHT22;68777;44.804;0.552;2023-04-01T08:15:16;15.16;61.92
79315;DHT22;68777;44.804;0.552;2023-04-01T08:20:46;15.44;61.78
79315;DHT22;68777;44.804;0.552;2023-04-01T08:23:16;15.50;60.97
79315;DHT22;68777;44.804;0.552;2023-04-01T08:25:48;15.36;60.74
79315;DHT22;68777;44.804;0.552;2023-04-01T08:29:04;15.00;60.58
79315;DHT22;68777;44.804;0.552;2023-04-01T08:31:32;14.69;59.44
79315;DHT22;68777;44.804;0.552;2023-04-01T08:33:58;14.78;59.04
79315;DHT22;68777;44.804;0.552;2023-04-01T08:36:34;14.88;57.73
79315;DHT22;68777;44.804;0.552;2023-04-01T08:39:11;14.75;57.89
79315;DHT22;68777;44.804;0.552;2023-04-01T08:49:54;15.19;58.11
79315;DHT22;68777;44.804;0.552;2023-04-01T08:57:42;13.42;71.29
79315;DHT22;68777;44.804;0.552;2023-04-01T09:00:38;11.72;82.75
79315;DHT22;68777;44.804;0.552;2023-04-01T09:13:42;12.91;85.22
79315;DHT22;68777;44.804;0.552;2023-04-01T09:19:28;12.98;85.09
79315;DHT22;68777;44.804;0.552;2023-04-01T09:22:18;13.19;84.27
79315;DHT22;68777;44.804;0.552;2023-04-01T09:27:25;13.26;81.52
79315;DHT22;68777;44.804;0.552;2023-04-01T09:29:56;13.42;79.31
79315;DHT22;68777;44.804;0.552;2023-04-01T09:32:42;13.46;78.72
79315;DHT22;68777;44.804;0.552;2023-04-01T09:40:58;13.69;76.24
79315;DHT22;68777;44.804;0.552;2023-04-01T09:54:23;14.78;74.65
79315;DHT22;68777;44.804;0.552;2023-04-01T10:05:22;15.02;69.03
79315;DHT22;68777;44.804;0.552;2023-04-01T10:19:35;15.64;53.17
79315;DHT22;68777;44.804;0.552;2023-04-01T10:25:26;15.67;55.64
79315;DHT22;68777;44.804;0.552;2023-04-01T10:31:00;15.43;56.64
79315;DHT22;68777;44.804;0.552;2023-04-01T10:39:43;15.81;55.79
79315;DHT22;68777;44.804;0.552;2023-04-01T10:46:05;15.94;54.17
79315;DHT22;68777;44.804;0.552;2023-04-01T11:24:32;16.01;47.59
79315;DHT22;68777;44.804;0.552;2023-04-01T11:33:29;15.43;48.53
79315;DHT22;68777;44.804;0.552;2023-04-01T11:36:14;15.70;50.44
79315;DHT22;68777;44.804;0.552;2023-04-01T11:41:49;15.34;57.40
79315;DHT22;68777;44.804;0.552;2023-04-01T11:44:20;12.26;71.45
79315;DHT22;68777;44.804;0.552;2023-04-01T11:49:53;12.38;69.11
79315;DHT22;68777;44.804;0.552;2023-04-01T11:52:52;12.84;71.18
79315;DHT22;68777;44.804;0.552;2023-04-01T12:01:49;14.49;61.14
79315;DHT22;68777;44.804;0.552;2023-04-01T12:04:41;14.61;61.30
79315;DHT22;68777;44.804;0.552;2023-04-01T12:10:21;14.95;56.03
79315;DHT22;68777;44.804;0.552;2023-04-01T12:12:58;15.06;55.63
79315;DHT22;68777;44.804;0.552;2023-04-01T12:16:30;15.33;54.83
79315;DHT22;68777;44.804;0.552;2023-04-01T12:18:38;15.37;54.89
79315;DHT22;68777;44.804;0.552;2023-04-01T12:21:21;15.29;52.95
79315;DHT22;68777;44.804;0.552;2023-04-01T12:37:45;15.83;51.82
79315;DHT22;68777;44.804;0.552;2023-04-01T12:40:45;15.78;52.81
79315;DHT22;68777;44.804;0.552;2023-04-01T12:51:37;14.17;69.18
79315;DHT22;68777;44.804;0.552;2023-04-01T12:54:43;14.14;70.93
79315;DHT22;68777;44.804;0.552;2023-04-01T13:00:31;14.32;55.66
79315;DHT22;68777;44.804;0.552;2023-04-01T13:03:19;14.59;54.80
79315;DHT22;68777;44.804;0.552;2023-04-01T13:11:09;15.58;49.75
79315;DHT22;68777;44.804;0.552;2023-04-01T13:24:31;15.22;50.57
79315;DHT22;68777;44.804;0.552;2023-04-01T13:29:45;15.20;50.28
79315;DHT22;68777;44.804;0.552;2023-04-01T13:37:24;16.08;50.97
79315;DHT22;68777;44.804;0.552;2023-04-01T13:42:59;16.63;49.03
79315;DHT22;68777;44.804;0.552;2023-04-01T13:45:38;16.60;50.55
79315;DHT22;68777;44.804;0.552;2023-04-01T14:05:13;11.45;88.39
79315;DHT22;68777;44.804;0.552;2023-04-01T14:08:12;11.57;86.19
79315;DHT22;68777;44.804;0.552;2023-04-01T14:11:25;11.99;85.40
79315;DHT22;68777;44.804;0.552;2023-04-01T14:22:33;12.04;81.27
79315;DHT22;68777;44.804;0.552;2023-04-01T14:28:12;12.61;81.25
79315;DHT22;68777;44.804;0.552;2023-04-01T14:34:03;13.25;76.43
79315;DHT22;68777;44.804;0.552;2023-04-01T14:50:20;14.10;61.21
79315;DHT22;68777;44.804;0.552;2023-04-01T14:58:15;13.97;61.46
79315;DHT22;68777;44.804;0.552;2023-04-01T15:00:59;14.03;61.72
79315;DHT22;68777;44.804;0.552;2023-04-01T15:03:32;13.26;66.39
79315;DHT22;68777;44.804;0.552;2023-04-01T15:15:04;9.40;87.88
79315;DHT22;68777;44.804;0.552;2023-04-01T15:31:49;10.66;88.99
79315;DHT22;68777;44.804;0.552;2023-04-01T16:50:43;11.68;74.94
79315;DHT22;68777;44.804;0.552;2023-04-01T16:55:54;11.52;68.70
79315;DHT22;68777;44.804;0.552;2023-04-01T16:58:36;11.52;64.66
79315;DHT22;68777;44.804;0.552;2023-04-01T17:01:26;11.57;62.73
79315;DHT22;68777;44.804;0.552;2023-04-01T17:03:58;11.55;61.06
79315;DHT22;68777;44.804;0.552;2023-04-01T17:06:45;11.69;60.67
79315;DHT22;68777;44.804;0.552;2023-04-01T17:09:44;11.73;60.87
79315;DHT22;68777;44.804;0.552;2023-04-01T17:12:32;11.85;61.59
79315;DHT22;68777;44.804;0.552;2023-04-01T17:18:09;12.10;59.34
79315;DHT22;68777;44.804;0.552;2023-04-01T17:23:25;12.02;60.18
79315;DHT22;68777;44.804;0.552;2023-04-01T17:37:31;11.86;60.92
79315;DHT22;68777;44.804;0.552;2023-04-01T17:40:34;11.76;61.11
79315;DHT22;68777;44.804;0.552;2023-04-01T17:43:09;11.86;61.57
79315;DHT22;68777;44.804;0.552;2023-04-01T17:45:53;11.85;61.27
79315;DHT22;68777;44.804;0.552;2023-04-01T17:51:35;11.92;62.35
79315;DHT22;68777;44.804;0.552;2023-04-01T17:57:02;11.76;63.43
79315;DHT22;68777;44.804;0.552;2023-04-01T17:59:43;11.68;64.42
79315;DHT22;68777;44.804;0.552;2023-04-01T18:02:20;11.61;64.40
79315;DHT22;68777;44.804;0.552;2023-04-01T18:07:25;11.45;65.51
79315;DHT22;68777;44.804;0.552;2023-04-01T18:10:38;11.48;65.25
79315;DHT22;68777;44.804;0.552;2023-04-01T18:24:13;11.43;62.76
79315;DHT22;68777;44.804;0.552;2023-04-01T18:26:43;11.08;67.22
79315;DHT22;68777;44.804;0.552;2023-04-01T18:34:41;10.90;66.98
79315;DHT22;68777;44.804;0.552;2023-04-01T18:37:34;10.88;68.70
79315;DHT22;68777;44.804;0.552;2023-04-01T18:42:53;10.94;68.41
79315;DHT22;68777;44.804;0.552;2023-04-01T18:45:27;10.81;68.01
79315;DHT22;68777;44.804;0.552;2023-04-01T18:48:32;10.88;68.05
79315;DHT22;68777;44.804;0.552;2023-04-01T18:51:11;10.88;68.81
79315;DHT22;68777;44.804;0.552;2023-04-01T18:53:42;10.94;68.41
79315;DHT22;68777;44.804;0.552;2023-04-01T18:56:38;11.17;68.47
79315;DHT22;68777;44.804;0.552;2023-04-01T18:59:28;11.29;68.20
79315;DHT22;68777;44.804;0.552;2023-04-01T19:04:57;11.24;66.04
79315;DHT22;68777;44.804;0.552;2023-04-01T19:07:52;11.15;65.87
79315;DHT22;68777;44.804;0.552;2023-04-01T19:10:43;11.29;66.70
79315;DHT22;68777;44.804;0.552;2023-04-01T19:13:42;11.29;65.44
79315;DHT22;68777;44.804;0.552;2023-04-01T19:16:24;11.28;66.02
79315;DHT22;68777;44.804;0.552;2023-04-01T19:19:08;11.22;65.86
79315;DHT22;68777;44.804;0.552;2023-04-01T19:21:41;11.06;66.85
79315;DHT22;68777;44.804;0.552;2023-04-01T19:27:18;10.68;67.30
79315;DHT22;68777;44.804;0.552;2023-04-01T19:29:56;10.64;67.59
79315;DHT22;68777;44.804;0.552;2023-04-01T19:32:32;10.57;68.26
79315;DHT22;68777;44.804;0.552;2023-04-01T19:35:17;10.49;68.20
79315;DHT22;68777;44.804;0.552;2023-04-01T19:59:38;10.49;68.51
79315;DHT22;68777;44.804;0.552;2023-04-01T20:04:42;10.23;69.15
79315;DHT22;68777;44.804;0.552;2023-04-01T20:13:06;10.19;69.60
79315;DHT22;68777;44.804;0.552;2023-04-01T20:15:41;10.30;69.87
79315;DHT22;68777;44.804;0.552;2023-04-01T20:18:17;10.23;70.45
79315;DHT22;68777;44.804;0.552;2023-04-01T20:21:36;10.16;70.04
79315;DHT22;68777;44.804;0.552;2023-04-01T20:26:41;10.23;69.94
79315;DHT22;68777;44.804;0.552;2023-04-01T20:32:38;10.37;69.96
79315;DHT22;68777;44.804;0.552;2023-04-01T20:40:41;10.37;70.35
79315;DHT22;68777;44.804;0.552;2023-04-01T20:49:30;10.39;70.32
79315;DHT22;68777;44.804;0.552;2023-04-01T20:54:49;10.35;70.79
79315;DHT22;68777;44.804;0.552;2023-04-01T21:11:30;10.10;72.18
79315;DHT22;68777;44.804;0.552;2023-04-01T21:20:39;10.02;72.63
79315;DHT22;68777;44.804;0.552;2023-04-01T21:22:41;10.05;72.78
79315;DHT22;68777;44.804;0.552;2023-04-01T21:25:27;10.08;72.54
79315;DHT22;68777;44.804;0.552;2023-04-01T21:36:47;10.10;72.86
79315;DHT22;68777;44.804;0.552;2023-04-01T21:39:58;10.16;72.89
79315;DHT22;68777;44.804;0.552;2023-04-01T21:57:59;10.08;73.18
79315;DHT22;68777;44.804;0.552;2023-04-01T22:06:34;10.36;72.86
79315;DHT22;68777;44.804;0.552;2023-04-01T22:09:28;10.42;72.60
79315;DHT22;68777;44.804;0.552;2023-04-01T22:11:57;10.39;72.89
79315;DHT22;68777;44.804;0.552;2023-04-01T22:16:58;10.29;73.05
79315;DHT22;68777;44.804;0.552;2023-04-01T22:25:05;10.22;73.31
79315;DHT22;68777;44.804;0.552;2023-04-01T22:27:51;10.28;73.30
79315;DHT22;68777;44.804;0.552;2023-04-01T22:30:23;10.23;73.44
79315;DHT22;68777;44.804;0.552;2023-04-01T22:33:13;10.29;73.22
79315;DHT22;68777;44.804;0.552;2023-04-01T22:36:00;10.33;72.81
79315;DHT22;68777;44.804;0.552;2023-04-01T22:44:22;10.22;73.67
79315;DHT22;68777;44.804;0.552;2023-04-01T22:49:32;10.25;73.03
79315;DHT22;68777;44.804;0.552;2023-04-01T22:52:09;10.23;72.82
79315;DHT22;68777;44.804;0.552;2023-04-01T22:57:37;10.26;73.37
79315;DHT22;68777;44.804;0.552;2023-04-01T23:02:45;10.29;73.26
79315;DHT22;68777;44.804;0.552;2023-04-01T23:05:16;10.30;73.50
79315;DHT22;68777;44.804;0.552;2023-04-01T23:10:49;10.25;73.12
79315;DHT22;68777;44.804;0.552;2023-04-01T23:13:25;10.29;73.48
79315;DHT22;68777;44.804;0.552;2023-04-01T23:15:53;10.30;73.33
79315;DHT22;68777;44.804;0.552;2023-04-01T23:21:29;10.19;73.55
79315;DHT22;68777;44.804;0.552;2023-04-01T23:29:16;10.10;74.10
79315;DHT22;68777;44.804;0.552;2023-04-01T23:31:44;10.16;74.18
79315;DHT22;68777;44.804;0.552;2023-04-01T23:36:41;10.12;73.94
79315;DHT22;68777;44.804;0.552;2023-04-01T23:39:41;10.01;74.41
79315;DHT22;68777;44.804;0.552;2023-04-01T23:42:27;10.05;74.61
79315;DHT22;68777;44.804;0.552;2023-04-01T23:45:15;10.08;74.52
79315;DHT22;68777;44.804;0.552;2023-04-01T23:47:48;10.05;74.47
79315;DHT22;68777;44.804;0.552;2023-04-01T23:50:19;10.08;74.33
79315;DHT22;68777;44.804;0.552;2023-04-01T23:52:48;10.12;74.40
79315;DHT22;68777;44.804;0.552;2023-04-01T23:55:19;10.01;74.34
